Terminal Aerodrome Forecast
Issued by NWS

Home | Current Version | Previous Version | Graphics & Text | Print | Product List | Glossary On
Versions: 1 2 3 4 5 6 7 8 9 10 11 12 13 14 15 16 17 18 19 20 21 22
000
FTUS43 KMPX 210500
TAFAXN
TAF
KAXN 210521Z 2106/2206 13009KT P6SM SHRA VCTS SCT025CB BKN050
      TEMPO 2106/2110 2SM TSRA BKN020CB
     FM211110 13006KT 4SM -SHRA BR BKN008 OVC015
     FM211500 14006KT 6SM BR BKN015 OVC035
     FM211800 17007KT P6SM BKN035
     FM220000 03005KT P6SM SCT110=

USA.gov is the U.S. government's official web portal to all federal, state and local government web resources and services.